createdAt,value
2018-05-19T00:00:49.956Z,8.86
2018-05-19T00:03:18.227Z,8.76
2018-05-19T00:05:46.472Z,8.75
2018-05-19T00:08:14.731Z,8.66
2018-05-19T00:10:42.975Z,8.58
2018-05-19T00:13:11.993Z,8.46
2018-05-19T00:15:40.260Z,8.45
2018-05-19T00:18:08.523Z,8.35
2018-05-19T00:20:37.521Z,8.45
2018-05-19T00:23:05.790Z,8.55
2018-05-19T00:25:34.797Z,8.63
2018-05-19T00:28:03.039Z,8.64
2018-05-19T00:30:31.300Z,8.53
2018-05-19T00:32:59.543Z,8.59
2018-05-19T00:35:27.807Z,8.49
2018-05-19T00:37:56.065Z,8.45
2018-05-19T00:40:25.082Z,8.34
2018-05-19T00:42:53.325Z,8.28
2018-05-19T00:45:22.367Z,8.33
2018-05-19T00:47:50.616Z,8.34
2018-05-19T00:50:18.872Z,8.22
2018-05-19T00:52:47.914Z,8.17
2018-05-19T00:55:16.160Z,8.20
2018-05-19T00:57:45.423Z,8.30
2018-05-19T01:00:13.688Z,8.27
2018-05-19T01:02:41.937Z,8.15
2018-05-19T01:05:10.189Z,8.04
2018-05-19T01:07:38.492Z,8.08
2018-05-19T01:10:06.749Z,7.96
2018-05-19T01:12:34.997Z,7.83
2018-05-19T01:15:04.029Z,7.94
2018-05-19T01:17:32.281Z,8.04
2018-05-19T01:20:00.524Z,8.05
2018-05-19T01:22:28.780Z,8.13
2018-05-19T01:24:57.032Z,8.10
2018-05-19T01:27:25.276Z,8.03
2018-05-19T01:29:54.316Z,7.93
2018-05-19T01:32:22.581Z,7.94
2018-05-19T01:34:50.828Z,7.87
2018-05-19T01:37:19.865Z,7.78
2018-05-19T01:39:48.124Z,7.74
2018-05-19T01:42:16.364Z,7.84
2018-05-19T01:44:44.632Z,7.99
2018-05-19T01:47:13.669Z,7.98
2018-05-19T01:49:41.921Z,8.00
2018-05-19T01:52:10.932Z,7.92
2018-05-19T01:54:39.188Z,7.80
2018-05-19T01:57:08.232Z,7.64
2018-05-19T01:59:36.505Z,7.52
2018-05-19T02:02:04.774Z,7.47
2018-05-19T02:04:33.037Z,7.45
2018-05-19T02:07:01.304Z,7.56
2018-05-19T02:09:29.561Z,7.65
2018-05-19T02:11:58.601Z,7.60
2018-05-19T02:14:26.858Z,7.58
2018-05-19T02:16:55.106Z,7.31
2018-05-19T02:19:23.384Z,7.32
2018-05-19T02:21:52.417Z,7.24
2018-05-19T02:24:20.664Z,7.34
2018-05-19T02:26:48.973Z,7.13
2018-05-19T02:29:17.260Z,7.08
2018-05-19T02:31:45.508Z,7.03
2018-05-19T02:34:13.766Z,7.04
2018-05-19T02:36:42.780Z,6.99
2018-05-19T02:39:11.210Z,7.02
2018-05-19T02:41:39.456Z,6.92
2018-05-19T02:44:07.724Z,6.90
2018-05-19T02:46:35.964Z,6.83
2018-05-19T02:49:04.216Z,6.83
2018-05-19T02:51:32.482Z,6.86
2018-05-19T02:54:00.729Z,6.99
2018-05-19T02:56:28.965Z,7.06
2018-05-19T02:58:57.988Z,6.89
2018-05-19T03:01:26.237Z,6.93
2018-05-19T03:03:54.489Z,6.59
2018-05-19T03:06:23.541Z,6.67
2018-05-19T03:08:51.798Z,6.61
2018-05-19T03:11:20.049Z,6.61
2018-05-19T03:13:49.083Z,6.56
2018-05-19T03:16:17.329Z,6.61
2018-05-19T03:18:46.344Z,6.57
2018-05-19T03:21:14.608Z,6.48
2018-05-19T03:23:42.872Z,6.34
2018-05-19T03:26:11.160Z,6.33
2018-05-19T03:28:39.421Z,6.30
2018-05-19T03:31:08.534Z,6.31
2018-05-19T03:33:36.800Z,6.39
2018-05-19T03:36:05.172Z,6.50
2018-05-19T03:38:33.317Z,6.59
2018-05-19T03:41:01.573Z,6.62
2018-05-19T03:43:29.833Z,6.65
2018-05-19T03:45:58.089Z,6.43
2018-05-19T03:48:26.387Z,6.48
2018-05-19T03:50:55.458Z,6.56
2018-05-19T03:53:23.748Z,6.52
2018-05-19T03:55:52.000Z,6.37
2018-05-19T03:58:38.796Z,6.41
2018-05-19T04:01:25.672Z,6.39
2018-05-19T04:03:53.940Z,6.62
2018-05-19T04:06:22.180Z,6.70
2018-05-19T04:08:50.460Z,6.53
2018-05-19T04:11:18.830Z,6.55
2018-05-19T04:13:47.000Z,6.55
2018-05-19T04:16:16.014Z,6.73
2018-05-19T04:18:44.398Z,6.83
2018-05-19T04:21:12.642Z,6.80
2018-05-19T04:23:41.653Z,6.72
2018-05-19T04:26:09.930Z,6.77
2018-05-19T04:28:38.192Z,6.82
2018-05-19T04:31:07.203Z,6.99
2018-05-19T04:33:35.473Z,6.97
2018-05-19T04:36:03.758Z,6.95
2018-05-19T04:38:32.000Z,7.13
2018-05-19T04:41:01.125Z,7.15
2018-05-19T04:43:29.411Z,7.25
2018-05-19T04:45:57.661Z,7.31
2018-05-19T04:48:26.686Z,7.38
2018-05-19T04:50:54.959Z,7.37
2018-05-19T04:53:23.220Z,7.26
2018-05-19T04:55:51.602Z,6.97
2018-05-19T04:58:19.849Z,7.06
2018-05-19T05:00:48.121Z,7.12
2018-05-19T05:03:16.381Z,7.36
2018-05-19T05:05:44.650Z,7.41
2018-05-19T05:08:12.985Z,7.58
2018-05-19T05:10:41.261Z,7.72
2018-05-19T05:13:09.504Z,7.89
2018-05-19T05:15:37.755Z,8.08
2018-05-19T05:18:06.098Z,8.01
2018-05-19T05:20:34.407Z,8.25
2018-05-19T05:23:02.653Z,8.43
2018-05-19T05:25:30.923Z,8.46
2018-05-19T05:27:59.213Z,8.38
2018-05-19T05:30:27.472Z,8.37
2018-05-19T05:32:55.744Z,8.50
2018-05-19T05:35:24.004Z,8.59
2018-05-19T05:37:53.116Z,8.71
2018-05-19T05:40:21.406Z,8.84
2018-05-19T05:42:49.677Z,8.97
2018-05-19T05:45:17.957Z,9.10
2018-05-19T05:47:46.217Z,9.24
2018-05-19T05:50:14.874Z,9.28
2018-05-19T05:52:43.021Z,9.43
2018-05-19T05:55:11.360Z,9.62
2018-05-19T05:57:39.632Z,9.78
2018-05-19T06:00:07.882Z,9.89
2018-05-19T06:02:36.189Z,10.06
2018-05-19T06:05:04.446Z,10.21
2018-05-19T06:07:33.458Z,10.36
2018-05-19T06:10:01.722Z,10.51
2018-05-19T06:12:30.770Z,10.59
2018-05-19T06:14:59.121Z,10.70
2018-05-19T06:17:27.382Z,10.80
2018-05-19T06:19:55.638Z,10.87
2018-05-19T06:22:24.671Z,10.92
2018-05-19T06:24:53.000Z,10.98
2018-05-19T06:27:21.241Z,11.07
2018-05-19T06:29:49.521Z,11.13
2018-05-19T06:32:17.793Z,11.16
2018-05-19T06:34:46.194Z,11.28
2018-05-19T06:37:14.417Z,11.45
2018-05-19T06:39:42.812Z,11.54
2018-05-19T06:42:11.125Z,11.72
2018-05-19T06:44:39.378Z,11.89
2018-05-19T06:47:07.739Z,12.03
2018-05-19T06:49:35.992Z,12.12
2018-05-19T06:52:04.277Z,12.28
2018-05-19T06:54:32.566Z,12.37
2018-05-19T06:57:00.913Z,12.32
2018-05-19T06:59:29.103Z,12.47
2018-05-19T07:01:57.373Z,12.29
2018-05-19T07:04:25.665Z,12.30
2018-05-19T07:06:53.921Z,12.56
2018-05-19T07:09:22.984Z,12.64
2018-05-19T07:11:51.286Z,12.58
2018-05-19T07:14:20.310Z,12.89
2018-05-19T07:16:48.680Z,13.17
2018-05-19T07:19:16.936Z,13.25
2018-05-19T07:21:45.965Z,13.60
2018-05-19T07:24:14.247Z,13.80
2018-05-19T07:26:42.557Z,14.13
2018-05-19T07:29:10.814Z,14.18
2018-05-19T07:31:39.093Z,14.25
2018-05-19T07:34:07.437Z,14.53
2018-05-19T07:36:35.708Z,14.84
2018-05-19T07:39:03.981Z,14.95
2018-05-19T07:41:32.246Z,15.01
2018-05-19T07:44:01.352Z,15.18
2018-05-19T07:46:29.633Z,15.35
2018-05-19T07:48:57.914Z,15.34
2018-05-19T07:51:26.207Z,15.45
2018-05-19T07:53:54.561Z,15.83
2018-05-19T07:56:22.865Z,16.11
2018-05-19T07:58:51.122Z,16.17
2018-05-19T08:01:19.390Z,16.08
2018-05-19T08:03:47.685Z,16.37
2018-05-19T08:06:15.948Z,16.37
2018-05-19T08:08:44.204Z,16.39
2018-05-19T08:11:13.354Z,16.74
2018-05-19T08:13:41.606Z,16.98
2018-05-19T08:16:09.880Z,16.80
2018-05-19T08:18:38.253Z,17.02
2018-05-19T08:21:06.521Z,17.33
2018-05-19T08:23:34.817Z,17.23
2018-05-19T08:26:03.104Z,17.31
2018-05-19T08:28:31.405Z,17.66
2018-05-19T08:30:59.628Z,17.29
2018-05-19T08:33:28.747Z,17.38
2018-05-19T08:35:57.061Z,17.68
2018-05-19T08:38:25.314Z,17.81
2018-05-19T08:40:53.582Z,18.02
2018-05-19T08:43:21.842Z,18.03
2018-05-19T08:45:50.089Z,17.89
2018-05-19T08:48:19.130Z,17.90
2018-05-19T08:50:47.385Z,17.14
2018-05-19T08:53:15.645Z,17.53
2018-05-19T08:55:43.936Z,17.79
2018-05-19T08:58:12.180Z,17.68
2018-05-19T09:00:41.208Z,17.74
2018-05-19T09:03:09.476Z,18.03
2018-05-19T09:05:37.735Z,17.89
2018-05-19T09:08:06.845Z,18.16
2018-05-19T09:10:35.105Z,18.27
2018-05-19T09:13:04.216Z,18.13
2018-05-19T09:15:32.486Z,18.16
2018-05-19T09:18:01.514Z,18.04
2018-05-19T09:20:29.787Z,17.72
2018-05-19T09:22:58.028Z,17.60
2018-05-19T09:25:27.177Z,17.59
2018-05-19T09:27:55.537Z,17.67
2018-05-19T09:30:23.813Z,17.83
2018-05-19T09:32:52.086Z,18.23
2018-05-19T09:35:20.444Z,18.49
2018-05-19T09:37:48.731Z,18.66
2018-05-19T09:40:16.995Z,18.40
2018-05-19T09:42:45.268Z,18.53
2018-05-19T09:45:13.534Z,18.33
2018-05-19T09:47:42.618Z,18.61
2018-05-19T09:50:10.937Z,18.53
2018-05-19T09:52:39.200Z,18.63
2018-05-19T09:55:07.484Z,18.68
2018-05-19T09:57:36.517Z,18.75
2018-05-19T10:00:04.773Z,18.42
2018-05-19T10:02:33.041Z,18.39
2018-05-19T10:05:01.421Z,18.31
2018-05-19T10:07:29.672Z,18.18
2018-05-19T10:09:57.972Z,18.35
2018-05-19T10:12:26.340Z,18.40
2018-05-19T10:14:54.592Z,18.55
2018-05-19T10:17:23.718Z,18.69
2018-05-19T10:19:51.987Z,18.87
2018-05-19T10:22:20.236Z,19.12
2018-05-19T10:24:49.272Z,19.22
2018-05-19T10:27:17.529Z,19.38
2018-05-19T10:29:45.802Z,19.50
2018-05-19T10:32:14.064Z,19.42
2018-05-19T10:34:43.095Z,19.54
2018-05-19T10:37:11.349Z,19.70
2018-05-19T10:39:39.621Z,19.36
2018-05-19T10:42:07.869Z,19.53
2018-05-19T10:44:36.181Z,19.88
2018-05-19T10:47:04.449Z,19.98
2018-05-19T10:49:32.693Z,20.02
2018-05-19T10:52:01.860Z,20.32
2018-05-19T10:54:30.132Z,20.25
2018-05-19T10:56:58.385Z,20.53
2018-05-19T10:59:26.665Z,20.88
2018-05-19T11:01:54.928Z,21.09
2018-05-19T11:04:23.219Z,21.41
2018-05-19T11:06:51.480Z,21.69
2018-05-19T11:09:19.745Z,21.70
2018-05-19T11:11:48.855Z,21.56
2018-05-19T11:14:17.096Z,21.54
2018-05-19T11:16:45.368Z,21.34
2018-05-19T11:19:13.616Z,21.65
2018-05-19T11:21:41.873Z,21.76
2018-05-19T11:24:10.233Z,21.53
2018-05-19T11:26:38.525Z,21.16
2018-05-19T11:29:06.776Z,20.77
2018-05-19T11:31:35.068Z,20.55
2018-05-19T11:34:03.341Z,20.63
2018-05-19T11:36:31.598Z,20.90
2018-05-19T11:38:59.916Z,21.13
2018-05-19T11:41:28.296Z,20.95
2018-05-19T11:43:56.532Z,21.32
2018-05-19T11:46:25.576Z,21.60
2018-05-19T11:48:53.950Z,21.90
2018-05-19T11:51:22.208Z,22.17
2018-05-19T11:53:50.576Z,22.41
2018-05-19T11:56:18.832Z,21.38
2018-05-19T11:58:47.953Z,20.78
2018-05-19T12:01:16.317Z,20.14
2018-05-19T12:03:44.487Z,20.53
2018-05-19T12:06:13.631Z,20.53
2018-05-19T12:08:41.901Z,20.21
2018-05-19T12:11:10.248Z,20.73
2018-05-19T12:13:38.535Z,20.81
2018-05-19T12:16:06.917Z,20.87
2018-05-19T12:18:35.169Z,21.16
2018-05-19T12:21:04.195Z,20.95
2018-05-19T12:23:32.447Z,21.19
2018-05-19T12:26:00.793Z,21.30
2018-05-19T12:28:29.103Z,22.02
2018-05-19T12:30:57.384Z,22.19
2018-05-19T12:33:25.633Z,22.07
2018-05-19T12:35:54.769Z,22.72
2018-05-19T12:38:23.030Z,22.77
2018-05-19T12:40:51.288Z,23.27
2018-05-19T12:43:20.403Z,22.86
2018-05-19T12:45:48.689Z,23.17
2018-05-19T12:48:16.942Z,23.54
2018-05-19T12:50:45.975Z,23.85
2018-05-19T12:53:14.233Z,24.17
2018-05-19T12:55:42.509Z,23.50
2018-05-19T12:58:10.773Z,23.35
2018-05-19T13:00:39.048Z,23.24
2018-05-19T13:03:07.304Z,22.17
2018-05-19T13:05:35.669Z,21.58
2018-05-19T13:08:05.440Z,21.97
2018-05-19T13:10:33.702Z,22.40
2018-05-19T13:13:01.970Z,23.01
2018-05-19T13:15:30.259Z,23.09
2018-05-19T13:17:58.540Z,23.58
2018-05-19T13:20:26.809Z,22.54
2018-05-19T13:22:55.076Z,22.34
2018-05-19T13:25:23.368Z,22.40
2018-05-19T13:27:51.621Z,23.30
2018-05-19T13:30:19.908Z,23.19
2018-05-19T13:32:48.181Z,22.22
2018-05-19T13:35:16.462Z,22.06
2018-05-19T13:37:44.766Z,22.02
2018-05-19T13:40:13.111Z,22.22
2018-05-19T13:42:41.365Z,22.06
2018-05-19T13:45:10.405Z,22.97
2018-05-19T13:47:38.766Z,24.68
2018-05-19T13:50:07.045Z,25.93
2018-05-19T13:52:35.328Z,26.98
2018-05-19T13:55:03.601Z,26.82
2018-05-19T13:57:31.882Z,26.32
2018-05-19T14:00:00.173Z,26.80
2018-05-19T14:02:28.436Z,26.72
2018-05-19T14:04:56.689Z,27.32
2018-05-19T14:07:24.953Z,28.23
2018-05-19T14:09:53.988Z,28.52
2018-05-19T14:12:22.246Z,29.27
2018-05-19T14:14:50.537Z,29.86
2018-05-19T14:17:18.785Z,28.17
2018-05-19T14:19:47.080Z,25.90
2018-05-19T14:22:15.451Z,25.83
2018-05-19T14:24:43.712Z,26.89
2018-05-19T14:27:12.736Z,27.18
2018-05-19T14:29:41.003Z,26.32
2018-05-19T14:32:09.307Z,26.16
2018-05-19T14:34:37.621Z,26.31
2018-05-19T14:37:06.713Z,27.41
2018-05-19T14:39:35.016Z,27.61
2018-05-19T14:42:03.305Z,27.27
2018-05-19T14:44:31.588Z,26.41
2018-05-19T14:46:59.873Z,25.95
2018-05-19T14:49:28.125Z,27.35
2018-05-19T14:51:56.401Z,28.56
2018-05-19T14:54:24.711Z,29.79
2018-05-19T14:56:53.073Z,30.18
2018-05-19T14:59:22.397Z,31.13
2018-05-19T15:01:50.738Z,31.38
2018-05-19T15:04:19.198Z,32.04
2018-05-19T15:06:47.596Z,32.72
2018-05-19T15:09:15.851Z,32.01
2018-05-19T15:11:44.932Z,32.55
2018-05-19T15:14:13.961Z,32.81
2018-05-19T15:16:42.220Z,32.56
2018-05-19T15:19:11.329Z,32.21
2018-05-19T15:21:40.440Z,33.05
2018-05-19T15:24:08.713Z,32.60
2018-05-19T15:26:36.977Z,31.95
2018-05-19T15:29:05.261Z,30.60
2018-05-19T15:31:33.532Z,30.79
2018-05-19T15:34:01.788Z,31.60
2018-05-19T15:36:30.906Z,32.22
2018-05-19T15:38:59.172Z,32.04
2018-05-19T15:41:28.196Z,32.69
2018-05-19T15:43:56.440Z,33.37
2018-05-19T15:46:25.468Z,33.15
2018-05-19T15:48:53.838Z,32.62
2018-05-19T15:51:22.092Z,33.17
2018-05-19T15:53:50.359Z,32.83
2018-05-19T15:56:19.526Z,32.58
2018-05-19T15:58:47.784Z,33.33
2018-05-19T16:01:16.057Z,32.66
2018-05-19T16:03:44.527Z,32.25
2018-05-19T16:06:12.785Z,32.77
2018-05-19T16:08:41.113Z,32.67
2018-05-19T16:11:09.334Z,32.43
2018-05-19T16:13:37.585Z,32.92
2018-05-19T16:16:06.616Z,32.56
2018-05-19T16:18:34.869Z,32.65
2018-05-19T16:21:03.891Z,32.87
2018-05-19T16:23:32.235Z,33.01
2018-05-19T16:26:01.345Z,32.76
2018-05-19T16:28:29.606Z,32.20
2018-05-19T16:30:58.718Z,31.88
2018-05-19T16:33:26.989Z,31.96
2018-05-19T16:35:55.237Z,31.70
2018-05-19T16:38:23.559Z,32.33
2018-05-19T16:40:51.836Z,33.17
2018-05-19T16:43:20.078Z,32.80
2018-05-19T16:45:49.123Z,32.74
2018-05-19T16:48:17.381Z,32.78
2018-05-19T16:50:45.625Z,31.67
2018-05-19T16:53:14.742Z,31.71
2018-05-19T16:55:42.997Z,31.46
2018-05-19T16:58:12.009Z,29.94
2018-05-19T17:00:40.298Z,29.32
2018-05-19T17:03:08.543Z,29.29
2018-05-19T17:05:37.659Z,28.90
2018-05-19T17:08:05.941Z,29.48
2018-05-19T17:10:34.193Z,29.97
2018-05-19T17:13:03.212Z,29.03
2018-05-19T17:15:31.486Z,29.18
2018-05-19T17:17:59.759Z,29.32
2018-05-19T17:20:28.032Z,27.91
2018-05-19T17:22:56.299Z,26.75
2018-05-19T17:25:25.317Z,26.35
2018-05-19T17:27:53.574Z,26.95
2018-05-19T17:30:21.880Z,27.54
2018-05-19T17:32:50.953Z,28.48
2018-05-19T17:35:19.202Z,29.26
2018-05-19T17:37:48.238Z,28.47
2018-05-19T17:40:16.491Z,28.29
2018-05-19T17:42:44.736Z,27.96
2018-05-19T17:45:13.008Z,27.88
2018-05-19T17:47:41.325Z,28.54
2018-05-19T17:50:09.582Z,28.11
2018-05-19T17:52:38.697Z,28.63
2018-05-19T17:55:06.982Z,27.71
2018-05-19T17:57:35.229Z,26.59
2018-05-19T18:00:04.260Z,24.43
2018-05-19T18:02:32.521Z,23.08
2018-05-19T18:05:00.780Z,22.28
2018-05-19T18:07:29.900Z,21.54
2018-05-19T18:09:58.162Z,21.23
2018-05-19T18:12:27.185Z,20.37
2018-05-19T18:14:55.480Z,20.01
2018-05-19T18:17:23.733Z,19.99
2018-05-19T18:19:51.992Z,19.75
2018-05-19T18:22:20.268Z,19.31
2018-05-19T18:24:48.525Z,19.08
2018-05-19T18:27:17.545Z,18.75
2018-05-19T18:29:46.010Z,18.70
2018-05-19T18:32:14.200Z,18.50
2018-05-19T18:34:42.457Z,18.28
2018-05-19T18:37:11.505Z,18.20
2018-05-19T18:39:39.765Z,17.91
2018-05-19T18:42:08.017Z,17.70
2018-05-19T18:44:36.331Z,17.56
2018-05-19T18:47:04.573Z,17.55
2018-05-19T18:49:32.820Z,17.39
2018-05-19T18:52:01.853Z,17.21
2018-05-19T18:54:30.131Z,17.09
2018-05-19T18:56:58.382Z,17.06
2018-05-19T18:59:26.696Z,17.05
2018-05-19T19:01:54.952Z,16.82
2018-05-19T19:04:23.230Z,16.70
2018-05-19T19:06:51.589Z,16.31
2018-05-19T19:09:20.610Z,16.23
2018-05-19T19:11:48.865Z,16.21
2018-05-19T19:14:17.143Z,16.11
2018-05-19T19:16:45.431Z,15.98
2018-05-19T19:19:13.689Z,15.84
2018-05-19T19:21:41.996Z,15.76
2018-05-19T19:24:10.249Z,15.72
2018-05-19T19:26:38.537Z,15.53
2018-05-19T19:29:07.014Z,15.42
2018-05-19T19:31:35.319Z,15.13
2018-05-19T19:34:03.605Z,14.98
2018-05-19T19:36:31.940Z,14.92
2018-05-19T19:39:00.189Z,14.89
2018-05-19T19:41:29.216Z,14.78
2018-05-19T19:43:57.481Z,14.63
2018-05-19T19:46:25.765Z,14.45
2018-05-19T19:48:54.051Z,14.35
2018-05-19T19:51:22.417Z,14.26
2018-05-19T19:53:50.696Z,14.24
2018-05-19T19:56:18.985Z,14.03
2018-05-19T19:58:47.272Z,14.04
2018-05-19T20:01:15.520Z,13.86
2018-05-19T20:03:43.785Z,13.79
2018-05-19T20:06:12.834Z,13.73
2018-05-19T20:08:41.094Z,13.76
2018-05-19T20:11:09.386Z,13.78
2018-05-19T20:13:37.669Z,13.66
2018-05-19T20:16:06.005Z,13.69
2018-05-19T20:18:34.290Z,13.58
2018-05-19T20:21:02.553Z,13.57
2018-05-19T20:23:30.809Z,13.54
2018-05-19T20:25:59.830Z,13.47
2018-05-19T20:28:28.119Z,13.39
2018-05-19T20:30:56.398Z,13.28
2018-05-19T20:33:24.755Z,13.21
2018-05-19T20:35:53.034Z,13.12
2018-05-19T20:38:21.295Z,12.94
2018-05-19T20:40:49.578Z,12.94
2018-05-19T20:43:17.844Z,12.83
2018-05-19T20:45:46.112Z,12.94
2018-05-19T20:48:15.229Z,12.90
2018-05-19T20:50:43.514Z,12.89
2018-05-19T20:53:11.803Z,12.72
2018-05-19T20:55:40.195Z,12.75
2018-05-19T20:58:08.475Z,12.76
2018-05-19T21:00:36.829Z,12.85
2018-05-19T21:03:05.076Z,12.78
2018-05-19T21:05:34.199Z,12.76
2018-05-19T21:08:02.466Z,12.74
2018-05-19T21:10:30.737Z,12.69
2018-05-19T21:12:59.032Z,12.73
2018-05-19T21:15:27.293Z,12.78
2018-05-19T21:17:55.582Z,12.79
2018-05-19T21:20:23.852Z,12.67
2018-05-19T21:22:52.623Z,12.68
2018-05-19T21:25:20.914Z,12.77
2018-05-19T21:27:49.177Z,12.76
2018-05-19T21:30:17.439Z,12.81
2018-05-19T21:32:46.483Z,12.82
2018-05-19T21:35:14.817Z,12.77
2018-05-19T21:37:43.081Z,12.81
2018-05-19T21:40:12.127Z,12.86
2018-05-19T21:42:40.377Z,12.86
2018-05-19T21:45:08.657Z,12.82
2018-05-19T21:47:36.933Z,12.81
2018-05-19T21:50:05.288Z,12.64
2018-05-19T21:52:33.496Z,12.57
2018-05-19T21:55:01.775Z,12.50
2018-05-19T21:57:30.062Z,12.42
2018-05-19T21:59:59.045Z,12.43
2018-05-19T22:02:27.318Z,12.31
2018-05-19T22:04:55.589Z,12.19
2018-05-19T22:07:23.840Z,12.01
2018-05-19T22:09:52.889Z,11.99
2018-05-19T22:12:21.132Z,11.82
2018-05-19T22:14:49.413Z,11.84
2018-05-19T22:17:17.682Z,11.93
2018-05-19T22:19:45.937Z,11.90
2018-05-19T22:22:14.959Z,11.85
2018-05-19T22:24:43.248Z,11.87
2018-05-19T22:27:11.521Z,11.82
2018-05-19T22:29:39.776Z,11.74
2018-05-19T22:32:08.045Z,11.78
2018-05-19T22:34:36.296Z,11.73
2018-05-19T22:37:04.552Z,11.79
2018-05-19T22:39:32.834Z,11.78
2018-05-19T22:42:01.096Z,11.74
2018-05-19T22:44:29.360Z,11.68
2018-05-19T22:46:57.633Z,11.64
2018-05-19T22:49:25.893Z,11.53
2018-05-19T22:51:54.149Z,11.39
2018-05-19T22:54:23.186Z,11.29
2018-05-19T22:56:51.445Z,11.31
2018-05-19T22:59:19.713Z,11.27
2018-05-19T23:01:48.001Z,11.12
2018-05-19T23:04:16.248Z,11.07
2018-05-19T23:06:45.264Z,11.05
2018-05-19T23:09:13.566Z,11.03
2018-05-19T23:11:41.820Z,10.98
2018-05-19T23:14:10.077Z,10.81
2018-05-19T23:16:38.352Z,10.69
2018-05-19T23:19:06.604Z,10.57
2018-05-19T23:21:34.878Z,10.38
2018-05-19T23:24:03.132Z,10.41
2018-05-19T23:26:32.140Z,10.39
2018-05-19T23:29:00.432Z,10.43
2018-05-19T23:31:28.846Z,10.34
2018-05-19T23:33:57.088Z,10.38
2018-05-19T23:36:26.103Z,10.23
2018-05-19T23:38:54.628Z,10.13
2018-05-19T23:41:22.899Z,10.03
2018-05-19T23:43:51.198Z,10.04
2018-05-19T23:46:19.464Z,10.10
2018-05-19T23:48:47.799Z,10.02
2018-05-19T23:51:16.290Z,9.99
2018-05-19T23:53:44.611Z,9.95
2018-05-19T23:56:13.013Z,9.95
2018-05-19T23:58:42.048Z,9.93
